Time;durP1;ratioP1;P1;durP2;ratioP2;P2;SDS_P1;SDS_P2;PMS_P1;PMS_P2;Temp;Humidity;BMP_temperature;BMP_pressure;BME280_temperature;BME280_humidity;BME280_pressure;Samples;Min_cycle;Max_cycle;Signal;HPM_P1;HPM_P2
2023/12/30 00:00:18;;;;;;;10.35;9.27;;;;;;;20.53;46.43;101560.84;5034765;28;20045;-59
2023/12/30 00:02:49;;;;;;;9.82;8.73;;;;;;;20.52;46.48;101559.13;5036313;28;20377;-57
2023/12/30 00:05:17;;;;;;;10.98;8.60;;;;;;;20.51;46.31;101562.81;5036275;28;20072;-57
2023/12/30 00:07:45;;;;;;;9.63;8.43;;;;;;;20.52;46.35;101550.22;5037900;28;20414;-55
2023/12/30 00:10:12;;;;;;;11.15;9.18;;;;;;;20.51;46.43;101553.91;5036491;28;20056;-55
2023/12/30 00:12:40;;;;;;;10.23;8.93;;;;;;;20.51;46.39;101560.13;5030140;28;20041;-55
2023/12/30 00:15:08;;;;;;;9.48;8.10;;;;;;;20.50;46.27;101558.41;5040279;28;20037;-52
2023/12/30 00:17:35;;;;;;;10.15;7.88;;;;;;;20.49;46.29;101562.06;5038744;28;20483;-56
2023/12/30 00:20:03;;;;;;;10.32;8.70;;;;;;;20.49;46.45;101546.78;5033199;28;20053;-55
2023/12/30 00:22:31;;;;;;;9.75;8.75;;;;;;;20.49;46.40;101549.47;5035478;28;20491;-49
2023/12/30 00:24:58;;;;;;;10.52;8.77;;;;;;;20.49;46.41;101554.00;5036697;28;20049;-51
2023/12/30 00:27:26;;;;;;;9.80;8.80;;;;;;;20.48;46.35;101552.25;5038220;28;20049;-47
2023/12/30 00:29:54;;;;;;;11.40;8.57;;;;;;;20.49;46.28;101551.31;5036478;28;20399;-52
2023/12/30 00:32:21;;;;;;;9.43;8.35;;;;;;;20.46;46.44;101541.63;5037605;28;20381;-49
2023/12/30 00:34:49;;;;;;;10.73;9.07;;;;;;;20.46;46.35;101541.63;5036645;28;20431;-53
2023/12/30 00:37:20;;;;;;;11.05;9.23;;;;;;;20.48;46.44;101545.06;5038409;28;20112;-52
2023/12/30 00:39:50;;;;;;;9.15;8.25;;;;;;;20.47;46.42;101539.78;5036957;28;20050;-51
2023/12/30 00:42:18;;;;;;;9.82;8.63;;;;;;;20.45;46.41;101539.91;5035013;28;20061;-50
2023/12/30 00:44:45;;;;;;;9.63;8.40;;;;;;;20.44;46.25;101548.94;5038056;28;20046;-50
2023/12/30 00:47:14;;;;;;;9.75;8.48;;;;;;;20.44;46.25;101545.41;5036573;28;20060;-55
2023/12/30 00:49:41;;;;;;;11.50;9.30;;;;;;;20.43;46.36;101538.31;5036439;28;20052;-54
2023/12/30 00:52:09;;;;;;;11.23;8.90;;;;;;;20.42;46.25;101542.84;5036305;28;20041;-54
2023/12/30 00:54:36;;;;;;;10.60;9.50;;;;;;;20.41;46.25;101541.13;5037829;28;20049;-55
2023/12/30 00:57:14;;;;;;;8.90;8.02;;;;;;;20.41;46.38;101542.97;5024584;28;20049;-54
2023/12/30 00:59:43;;;;;;;10.50;9.40;;;;;;;20.40;46.38;101547.47;5045466;28;20060;-56
2023/12/30 01:02:10;;;;;;;10.25;9.15;;;;;;;20.39;46.27;101550.31;5038362;28;20061;-53
2023/12/30 01:04:37;;;;;;;10.23;9.02;;;;;;;20.39;46.32;101553.00;5043011;28;20049;-54
2023/12/30 01:07:05;;;;;;;8.98;7.97;;;;;;;20.38;46.23;101544.06;5046653;28;20053;-49
2023/12/30 01:09:32;;;;;;;9.80;8.60;;;;;;;20.38;46.24;101541.38;5036212;28;20439;-53
2023/12/30 01:12:00;;;;;;;10.82;8.43;;;;;;;20.38;46.29;101554.84;5035864;28;20049;-49
2023/12/30 01:14:27;;;;;;;9.40;7.85;;;;;;;20.38;46.18;101554.84;5039454;28;20045;-48
2023/12/30 01:16:54;;;;;;;10.07;8.48;;;;;;;20.37;46.39;101552.25;5037315;28;20049;-49
2023/12/30 01:19:24;;;;;;;10.75;8.35;;;;;;;20.38;46.21;101553.97;5043691;28;20061;-51
2023/12/30 01:21:51;;;;;;;11.68;8.90;;;;;;;20.36;46.33;101555.91;5036084;28;20053;-49
2023/12/30 01:24:19;;;;;;;10.82;8.52;;;;;;;20.36;46.46;101550.53;5045163;28;20432;-50
2023/12/30 01:26:46;;;;;;;10.13;8.68;;;;;;;20.35;46.26;101544.31;5035790;28;20061;-52
2023/12/30 01:29:14;;;;;;;8.93;7.68;;;;;;;20.34;46.29;101545.28;5040976;28;20060;-53
2023/12/30 01:31:41;;;;;;;9.43;7.93;;;;;;;20.35;46.40;101538.09;5039383;28;20050;-50
2023/12/30 01:34:08;;;;;;;8.95;8.02;;;;;;;20.35;46.33;101543.47;5045404;28;20514;-53
2023/12/30 01:36:36;;;;;;;8.93;7.82;;;;;;;20.34;46.39;101541.75;5036229;28;20060;-46
2023/12/30 01:39:03;;;;;;;8.77;7.65;;;;;;;20.34;46.46;101542.59;5034361;28;20076;-46
2023/12/30 01:41:31;;;;;;;9.75;8.23;;;;;;;20.33;46.37;101540.03;5035332;28;20538;-48
2023/12/30 01:43:59;;;;;;;10.82;8.02;;;;;;;20.33;46.38;101540.88;5038574;28;20041;-51
2023/12/30 01:46:27;;;;;;;9.60;7.57;;;;;;;20.32;46.44;101541.00;5035690;28;20053;-53
2023/12/30 01:48:55;;;;;;;9.50;8.18;;;;;;;20.32;46.47;101532.94;5034739;28;20061;-55
2023/12/30 01:51:25;;;;;;;9.15;7.63;;;;;;;20.32;46.44;101535.63;5033836;28;20053;-52
2023/12/30 01:53:57;;;;;;;8.95;7.80;;;;;;;20.33;46.43;101550.78;5047998;28;20055;-55
2023/12/30 01:56:24;;;;;;;8.48;7.55;;;;;;;20.31;46.45;101542.00;5035545;28;20045;-52
2023/12/30 01:58:52;;;;;;;9.70;8.70;;;;;;;20.31;46.52;101547.38;5037308;28;20053;-53
2023/12/30 02:01:24;;;;;;;8.25;7.45;;;;;;;20.31;46.63;101545.53;5037466;28;20080;-54
2023/12/30 02:03:51;;;;;;;9.68;8.25;;;;;;;20.31;46.53;101542.00;5036431;28;20046;-54
2023/12/30 02:06:19;;;;;;;8.20;7.13;;;;;;;20.29;46.58;101534.03;5045958;28;20423;-53
2023/12/30 02:08:47;;;;;;;9.98;7.70;;;;;;;20.29;46.54;101539.41;5034281;28;20412;-51
2023/12/30 02:11:15;;;;;;;8.65;7.60;;;;;;;20.29;46.57;101538.56;5036905;28;20045;-52
2023/12/30 02:13:44;;;;;;;9.05;7.43;;;;;;;20.29;46.43;101538.56;5037277;28;20053;-51
2023/12/30 02:16:11;;;;;;;8.68;7.50;;;;;;;20.28;46.60;101532.31;5037956;28;20054;-50
2023/12/30 02:18:39;;;;;;;8.55;7.57;;;;;;;20.28;46.65;101536.84;5037536;28;20049;-51
2023/12/30 02:21:07;;;;;;;8.15;7.35;;;;;;;20.27;46.61;101527.06;5041261;28;20041;-51
2023/12/30 02:23:34;;;;;;;9.52;7.43;;;;;;;20.27;46.52;101522.56;5038536;28;20056;-49
2023/12/30 02:26:05;;;;;;;8.35;6.85;;;;;;;20.27;46.51;101516.31;5039159;28;20046;-49
2023/12/30 02:28:32;;;;;;;9.43;7.30;;;;;;;20.26;46.69;101512.78;5038857;28;20061;-52
2023/12/30 02:31:00;;;;;;;10.25;8.13;;;;;;;20.26;46.56;101520.84;5050740;28;20045;-53
2023/12/30 02:33:28;;;;;;;9.32;8.10;;;;;;;20.25;46.69;101521.81;5038545;28;20060;-54
2023/12/30 02:35:56;;;;;;;8.98;8.05;;;;;;;20.25;46.66;101519.13;5037793;28;20049;-54
2023/12/30 02:38:23;;;;;;;8.07;7.10;;;;;;;20.24;46.56;101515.56;5037868;28;20053;-54
2023/12/30 02:40:50;;;;;;;8.30;7.50;;;;;;;20.25;46.58;101511.03;5040782;28;20045;-51
2023/12/30 02:43:18;;;;;;;9.00;8.10;;;;;;;20.24;46.41;101518.25;5036024;28;20049;-52
2023/12/30 02:45:45;;;;;;;9.20;7.97;;;;;;;20.24;46.45;101512.88;5028496;28;20057;-50
2023/12/30 02:48:13;;;;;;;9.68;7.93;;;;;;;20.27;46.45;101524.38;5039112;28;20052;-48
2023/12/30 02:50:40;;;;;;;8.52;7.72;;;;;;;20.25;46.46;101513.72;5040903;28;20045;-48
2023/12/30 02:53:07;;;;;;;8.70;7.72;;;;;;;20.25;46.59;101508.34;5038461;28;20479;-50
2023/12/30 02:55:35;;;;;;;8.88;7.55;;;;;;;20.24;46.58;101504.81;5038487;28;20046;-48
2023/12/30 02:58:03;;;;;;;10.63;8.10;;;;;;;20.25;46.56;101503.88;5037840;28;20054;-51
2023/12/30 03:00:31;;;;;;;8.52;7.63;;;;;;;20.25;46.56;101492.22;5039096;28;20061;-49
2023/12/30 03:02:58;;;;;;;8.60;7.70;;;;;;;20.25;46.36;101498.50;5039130;28;20056;-49
2023/12/30 03:05:27;;;;;;;9.65;8.65;;;;;;;20.25;46.51;101490.41;5038517;28;20049;-52
2023/12/30 03:07:57;;;;;;;10.13;8.50;;;;;;;20.25;46.36;101495.78;5038519;28;20045;-52
2023/12/30 03:10:25;;;;;;;9.60;8.60;;;;;;;20.25;46.37;101495.78;5041032;28;20052;-53
2023/12/30 03:12:52;;;;;;;9.10;8.20;;;;;;;20.24;46.47;101480.63;5026105;28;20041;-51
2023/12/30 03:15:20;;;;;;;10.07;8.60;;;;;;;20.25;46.38;101476.09;5036967;28;20046;-48
2023/12/30 03:17:49;;;;;;;9.13;7.78;;;;;;;20.24;46.49;101471.69;5036790;28;20068;-52
2023/12/30 03:20:16;;;;;;;9.18;7.80;;;;;;;20.24;46.47;101472.56;5040989;28;20399;-53
2023/12/30 03:22:43;;;;;;;8.93;7.57;;;;;;;20.24;46.54;101483.31;5026154;28;20050;-51
2023/12/30 03:25:11;;;;;;;9.77;8.20;;;;;;;20.25;46.47;101484.16;5036965;28;20046;-53
2023/12/30 03:27:38;;;;;;;10.90;8.40;;;;;;;20.24;46.38;101480.63;5037485;28;20050;-54
2023/12/30 03:30:06;;;;;;;9.13;8.15;;;;;;;20.24;46.48;101490.53;5035902;28;20057;-52
2023/12/30 03:32:34;;;;;;;8.60;7.70;;;;;;;20.24;46.58;101477.94;5025628;28;20049;-52
2023/12/30 03:35:01;;;;;;;8.73;7.03;;;;;;;20.24;46.49;101472.56;5037670;28;20053;-52
2023/12/30 03:37:29;;;;;;;9.43;8.43;;;;;;;20.23;46.58;101470.84;5046767;28;20513;-53
2023/12/30 03:39:56;;;;;;;8.90;8.00;;;;;;;20.23;46.58;101470.84;5041258;28;20045;-51
2023/12/30 03:42:27;;;;;;;9.15;8.25;;;;;;;20.23;46.57;101464.63;5024764;28;20129;-53
2023/12/30 03:44:54;;;;;;;9.10;8.20;;;;;;;20.23;46.37;101465.47;5036517;28;20058;-49
2023/12/30 03:47:21;;;;;;;8.43;7.60;;;;;;;20.22;46.54;101474.53;5046536;28;20406;-52
2023/12/30 03:49:49;;;;;;;9.65;8.25;;;;;;;20.22;46.62;101479.91;5045533;28;20045;-51
2023/12/30 03:52:17;;;;;;;8.25;7.40;;;;;;;20.21;46.61;101478.16;5036132;28;20143;-51
2023/12/30 03:54:44;;;;;;;10.48;7.65;;;;;;;20.21;46.62;101472.78;5037419;28;20042;-49
2023/12/30 03:57:13;;;;;;;8.93;8.02;;;;;;;20.22;46.46;101471.84;5037161;28;20054;-50
2023/12/30 03:59:41;;;;;;;9.05;7.95;;;;;;;20.22;46.48;101473.66;5024341;28;20045;-53
2023/12/30 04:02:08;;;;;;;9.20;7.65;;;;;;;20.22;46.54;101468.28;5037016;28;20053;-50
2023/12/30 04:04:36;;;;;;;9.57;8.05;;;;;;;20.21;46.60;101480.84;5046002;28;20045;-52
2023/12/30 04:07:03;;;;;;;8.55;7.68;;;;;;;20.20;46.58;101470.22;5040851;28;20049;-51
2023/12/30 04:09:31;;;;;;;8.60;7.75;;;;;;;20.20;46.71;101476.47;5045876;28;20060;-48
2023/12/30 04:11:58;;;;;;;9.02;7.60;;;;;;;20.21;46.72;101471.94;5036819;28;20049;-50
2023/12/30 04:14:26;;;;;;;7.57;6.65;;;;;;;20.18;46.62;101473.06;5035653;28;20054;-49
2023/12/30 04:16:54;;;;;;;9.50;8.55;;;;;;;20.17;46.68;101463.25;5035129;28;20045;-49
2023/12/30 04:19:24;;;;;;;8.60;7.70;;;;;;;20.18;46.76;101470.38;5044866;28;20060;-51
2023/12/30 04:21:52;;;;;;;9.45;7.53;;;;;;;20.18;46.63;101467.69;5033577;28;20060;-51
2023/12/30 04:24:19;;;;;;;8.55;7.65;;;;;;;20.19;46.87;101477.44;5044064;28;20041;-49
2023/12/30 04:26:46;;;;;;;9.57;7.75;;;;;;;20.20;46.72;101478.31;5036152;28;20061;-50
2023/12/30 04:29:14;;;;;;;9.65;7.75;;;;;;;20.18;46.73;101473.06;5032236;28;20050;-53
2023/12/30 04:31:41;;;;;;;9.35;8.35;;;;;;;20.18;46.64;101472.22;5047894;28;20042;-53
2023/12/30 04:34:09;;;;;;;10.27;7.88;;;;;;;20.17;46.78;101479.38;5046374;28;20049;-52
2023/12/30 04:36:37;;;;;;;8.88;7.40;;;;;;;20.18;46.70;101481.13;5043888;28;20049;-49
2023/12/30 04:39:05;;;;;;;8.85;7.55;;;;;;;20.18;46.62;101478.44;5037861;28;20049;-50
2023/12/30 04:41:32;;;;;;;8.52;7.68;;;;;;;20.18;46.76;101480.28;5036934;28;20494;-52
2023/12/30 04:43:59;;;;;;;9.07;8.18;;;;;;;20.18;46.91;101475.75;5035241;28;20053;-52
2023/12/30 04:46:27;;;;;;;9.80;7.88;;;;;;;20.17;46.94;101479.38;5034790;28;20535;-53
2023/12/30 04:48:54;;;;;;;8.20;7.38;;;;;;;20.17;46.81;101474.00;5039261;28;20041;-48
2023/12/30 04:51:22;;;;;;;8.85;7.95;;;;;;;20.16;46.81;101475.00;5034651;28;20045;-51
2023/12/30 04:53:49;;;;;;;8.43;7.63;;;;;;;20.17;46.74;101484.75;5036177;28;20041;-53
2023/12/30 04:56:17;;;;;;;8.93;7.75;;;;;;;20.17;46.84;101479.38;5018592;28;20060;-50
2023/12/30 04:58:44;;;;;;;8.65;7.80;;;;;;;20.17;46.86;101474.00;5047528;28;20056;-54
2023/12/30 05:01:12;;;;;;;8.82;7.45;;;;;;;20.18;46.91;101489.19;5036054;28;20041;-55
2023/12/30 05:03:42;;;;;;;8.15;7.32;;;;;;;20.17;46.91;101482.06;5036240;28;20060;-55
2023/12/30 05:06:21;;;;;;;8.23;7.38;;;;;;;20.18;46.96;101494.56;5036526;28;20483;-53
2023/12/30 05:08:49;;;;;;;8.20;7.40;;;;;;;20.18;46.87;101501.78;5037116;28;20407;-51
2023/12/30 05:11:17;;;;;;;8.43;7.07;;;;;;;20.16;46.76;101490.28;5036533;28;20396;-49
2023/12/30 05:13:45;;;;;;;8.75;7.53;;;;;;;20.18;46.84;101508.00;5029007;28;20050;-51
2023/12/30 05:16:13;;;;;;;7.90;7.10;;;;;;;20.17;46.83;101506.28;5038026;28;20443;-54
2023/12/30 05:18:40;;;;;;;8.73;7.85;;;;;;;20.17;46.90;101502.72;5036195;28;20045;-50
2023/12/30 05:21:15;;;;;;;7.97;7.18;;;;;;;20.17;46.95;101516.16;5036127;28;20053;-48
2023/12/30 05:23:43;;;;;;;8.85;7.55;;;;;;;20.16;46.83;101520.69;5035754;28;20041;-50
2023/12/30 05:26:14;;;;;;;9.30;8.40;;;;;;;20.16;47.00;101520.69;5039250;28;20128;-52
2023/12/30 05:28:42;;;;;;;8.35;7.03;;;;;;;20.16;46.89;101523.38;5035495;28;20049;-51
2023/12/30 05:31:09;;;;;;;8.20;7.30;;;;;;;20.15;47.10;101513.63;5035695;28;20037;-51
2023/12/30 05:33:37;;;;;;;7.72;6.93;;;;;;;20.16;47.15;101515.31;5036006;28;20053;-51
2023/12/30 05:36:05;;;;;;;8.68;7.20;;;;;;;20.16;47.04;101511.78;5038608;28;20045;-51
2023/12/30 05:38:32;;;;;;;8.65;7.38;;;;;;;20.15;47.19;101521.69;5036435;28;20045;-55
2023/12/30 05:40:59;;;;;;;8.50;7.47;;;;;;;20.16;47.11;101522.53;5035634;28;20045;-53
2023/12/30 05:43:27;;;;;;;8.40;7.32;;;;;;;20.17;47.10;101529.63;5035694;28;20049;-53
2023/12/30 05:45:54;;;;;;;8.23;7.32;;;;;;;20.16;47.21;101534.13;5038907;28;20403;-51
2023/12/30 05:48:22;;;;;;;7.10;6.40;;;;;;;20.17;47.32;101540.38;5037218;28;20046;-50
2023/12/30 05:50:49;;;;;;;9.68;7.95;;;;;;;20.16;47.15;101535.97;5039907;28;20041;-51
2023/12/30 05:53:17;;;;;;;7.82;7.03;;;;;;;20.15;47.34;101543.19;5039182;28;20042;-50
2023/12/30 05:55:45;;;;;;;18.10;7.43;;;;;;;20.15;47.32;101542.34;5042361;28;20075;-52
2023/12/30 05:58:12;;;;;;;7.90;6.88;;;;;;;20.15;47.29;101542.34;5037938;28;20064;-52
2023/12/30 06:00:40;;;;;;;8.25;7.45;;;;;;;20.15;47.50;101553.94;5039247;28;20045;-47
2023/12/30 06:03:07;;;;;;;7.82;7.00;;;;;;;20.14;47.31;101551.38;5039420;28;20617;-49
2023/12/30 06:05:35;;;;;;;7.75;6.95;;;;;;;20.14;47.28;101552.22;5042057;28;20060;-53
2023/12/30 06:08:03;;;;;;;8.63;7.00;;;;;;;20.13;47.26;101558.56;5039783;28;20476;-53
2023/12/30 06:10:31;;;;;;;7.03;6.38;;;;;;;20.14;47.43;101567.50;5040367;28;20046;-51
2023/12/30 06:12:58;;;;;;;7.72;6.85;;;;;;;20.13;47.45;101566.63;5038974;28;20053;-50
2023/12/30 06:15:26;;;;;;;7.10;6.22;;;;;;;20.13;47.33;101561.25;5041654;28;20072;-52
2023/12/30 06:17:53;;;;;;;7.38;6.68;;;;;;;20.12;47.26;101564.06;5039671;28;20053;-51
2023/12/30 06:20:21;;;;;;;7.47;6.78;;;;;;;20.12;47.41;101556.00;5038826;28;20060;-52
2023/12/30 06:22:48;;;;;;;7.97;7.18;;;;;;;20.11;47.29;101565.91;5039845;28;20407;-52
2023/12/30 06:25:16;;;;;;;9.20;7.22;;;;;;;20.12;47.22;101575.69;5040555;28;20053;-53
2023/12/30 06:27:43;;;;;;;8.63;7.30;;;;;;;20.12;47.36;101566.75;5039029;28;20397;-51
2023/12/30 06:30:11;;;;;;;7.78;6.75;;;;;;;20.11;47.39;101570.44;5032400;28;20050;-54
2023/12/30 06:32:38;;;;;;;8.80;7.65;;;;;;;20.11;47.36;101571.28;5038717;28;20072;-54
2023/12/30 06:35:06;;;;;;;9.43;8.30;;;;;;;20.10;47.21;101577.66;5035983;28;20349;-54
2023/12/30 06:37:34;;;;;;;7.78;6.88;;;;;;;20.11;47.42;101578.50;5051135;28;20049;-48
2023/12/30 06:40:02;;;;;;;7.38;6.68;;;;;;;20.11;47.39;101576.66;5038832;28;20052;-51
2023/12/30 06:42:30;;;;;;;8.80;7.80;;;;;;;20.10;47.40;101574.09;5039121;28;20056;-51
2023/12/30 06:44:57;;;;;;;8.30;7.50;;;;;;;20.10;47.25;101582.16;5041657;28;20529;-50
2023/12/30 06:47:24;;;;;;;8.40;7.57;;;;;;;20.10;47.29;101585.72;5037456;28;20045;-53
2023/12/30 06:49:52;;;;;;;7.53;6.78;;;;;;;20.10;47.27;101583.03;5038375;28;20519;-51
2023/12/30 06:52:19;;;;;;;8.65;7.53;;;;;;;20.10;47.40;101593.78;5038538;28;20045;-52
2023/12/30 06:54:47;;;;;;;7.45;6.65;;;;;;;20.10;47.34;101593.78;5040848;28;20045;-54
2023/12/30 06:57:25;;;;;;;7.85;7.05;;;;;;;20.11;47.49;101600.84;5038632;28;20056;-53
2023/12/30 06:59:52;;;;;;;7.93;6.72;;;;;;;20.12;47.34;101607.94;5038112;28;20080;-55
2023/12/30 07:02:21;;;;;;;7.75;6.82;;;;;;;20.11;47.37;101608.91;5038964;28;20045;-53
2023/12/30 07:04:48;;;;;;;8.40;7.60;;;;;;;20.10;47.45;101612.59;5042109;28;20501;-54
2023/12/30 07:07:16;;;;;;;7.95;6.85;;;;;;;20.11;47.47;101606.22;5047430;28;20053;-51
2023/12/30 07:09:43;;;;;;;9.52;7.30;;;;;;;20.11;47.43;101605.38;5038189;28;20400;-48
2023/12/30 07:12:12;;;;;;;8.23;7.38;;;;;;;20.10;47.36;101615.28;5039748;28;20044;-50
2023/12/30 07:14:39;;;;;;;8.57;7.20;;;;;;;20.11;47.52;101611.59;5038760;28;20054;-51
2023/12/30 07:17:07;;;;;;;7.32;6.63;;;;;;;20.11;47.54;101608.91;5038303;28;20056;-50
2023/12/30 07:19:34;;;;;;;7.15;6.40;;;;;;;20.10;47.49;101609.91;5038042;28;20046;-52
2023/12/30 07:22:02;;;;;;;8.68;7.80;;;;;;;20.10;47.53;101606.38;5039886;28;20033;-49
2023/12/30 07:24:29;;;;;;;10.07;7.55;;;;;;;20.10;47.38;101607.22;5039002;28;20076;-54
2023/12/30 07:26:57;;;;;;;8.27;7.22;;;;;;;20.11;47.57;101610.75;5038267;28;20045;-54
2023/12/30 07:29:27;;;;;;;8.80;7.88;;;;;;;20.10;47.50;101617.97;5037657;28;20411;-51
2023/12/30 07:31:55;;;;;;;7.82;6.95;;;;;;;20.09;47.43;101613.53;5039678;28;20397;-49
2023/12/30 07:34:22;;;;;;;7.90;7.20;;;;;;;20.09;47.43;101629.66;5038196;28;20056;-49
2023/12/30 07:36:50;;;;;;;8.63;7.35;;;;;;;20.10;47.54;101626.03;5037808;28;20048;-52
2023/12/30 07:39:18;;;;;;;7.95;7.18;;;;;;;20.10;47.49;101626.03;5046013;28;20048;-52
2023/12/30 07:41:45;;;;;;;8.70;7.63;;;;;;;20.10;47.56;101623.34;5040778;28;20050;-52
2023/12/30 07:44:13;;;;;;;8.85;8.00;;;;;;;20.10;47.58;101628.72;5037065;28;20049;-51
2023/12/30 07:46:41;;;;;;;8.05;7.18;;;;;;;20.10;47.56;101625.19;5037797;28;20057;-54
2023/12/30 07:49:10;;;;;;;8.25;7.35;;;;;;;20.10;47.62;101631.41;5037433;28;20049;-50
2023/12/30 07:51:38;;;;;;;7.85;7.03;;;;;;;20.09;47.56;101626.97;5040150;28;20407;-52
2023/12/30 07:54:05;;;;;;;8.70;7.85;;;;;;;20.09;47.71;101632.34;5037434;28;20052;-55
2023/12/30 07:56:33;;;;;;;7.47;6.68;;;;;;;20.09;47.58;101635.03;5043790;28;20049;-54
2023/12/30 07:59:00;;;;;;;7.10;6.40;;;;;;;20.09;47.59;101631.50;5041676;28;20495;-51
2023/12/30 08:01:27;;;;;;;8.20;7.40;;;;;;;20.09;47.49;101626.97;5039752;28;20037;-52
2023/12/30 08:03:55;;;;;;;7.85;7.10;;;;;;;20.09;47.55;101636.88;5037072;28;20049;-55
2023/12/30 08:06:22;;;;;;;9.27;8.10;;;;;;;20.09;47.61;101634.19;5037184;28;20509;-51
2023/12/30 08:08:50;;;;;;;8.25;7.13;;;;;;;20.08;47.66;101640.53;5037166;28;20047;-53
2023/12/30 08:11:17;;;;;;;9.35;8.43;;;;;;;20.08;47.75;101645.94;5039058;28;20514;-53
2023/12/30 08:13:45;;;;;;;17.85;14.98;;;;;;;19.94;47.11;101639.78;5036849;28;20515;-51
2023/12/30 08:16:12;;;;;;;20.27;18.27;;;;;;;19.73;46.85;101638.72;5035856;28;20112;-51
2023/12/30 08:18:39;;;;;;;21.65;18.55;;;;;;;19.49;47.35;101630.63;5036801;28;20057;-52
2023/12/30 08:21:07;;;;;;;23.02;20.73;;;;;;;19.25;47.75;101644.00;5037649;28;20406;-53
2023/12/30 08:23:34;;;;;;;21.80;19.70;;;;;;;19.15;47.91;101633.06;5036147;28;20068;-54
2023/12/30 08:26:02;;;;;;;20.42;18.45;;;;;;;19.19;47.95;101642.63;5015160;28;20037;-59
2023/12/30 08:28:29;;;;;;;19.35;15.80;;;;;;;19.29;48.23;101656.25;5028086;28;20061;-55
2023/12/30 08:30:59;;;;;;;15.07;12.90;;;;;;;19.39;48.38;101645.69;5029950;28;20402;-53
2023/12/30 08:33:26;;;;;;;12.57;11.38;;;;;;;19.48;48.41;101642.31;5034350;28;20369;-55
2023/12/30 08:35:54;;;;;;;12.60;11.30;;;;;;;19.56;48.23;101649.81;5024703;28;20049;-53
2023/12/30 08:38:21;;;;;;;11.43;10.32;;;;;;;19.61;48.46;101661.09;5024271;28;20046;-59
2023/12/30 08:40:49;;;;;;;12.73;11.20;;;;;;;19.66;48.42;101653.56;5030396;28;20440;-58
2023/12/30 08:43:16;;;;;;;12.55;11.32;;;;;;;19.70;48.16;101649.69;5028065;28;20045;-58
2023/12/30 08:45:44;;;;;;;11.57;10.48;;;;;;;19.74;48.34;101656.53;5021224;28;20054;-58
2023/12/30 08:48:12;;;;;;;11.63;10.43;;;;;;;19.78;48.28;101659.88;5023891;28;20053;-53
2023/12/30 08:50:39;;;;;;;12.35;11.15;;;;;;;19.79;48.04;101656.19;5031058;28;20048;-54
2023/12/30 08:53:07;;;;;;;10.65;9.55;;;;;;;19.83;48.00;101658.53;5023916;28;20510;-52
2023/12/30 08:55:35;;;;;;;11.27;10.02;;;;;;;19.85;47.88;101658.41;5023893;28;20547;-57
2023/12/30 08:58:02;;;;;;;11.38;10.25;;;;;;;19.87;47.97;101660.00;5023782;28;20046;-55
2023/12/30 09:00:30;;;;;;;10.52;9.43;;;;;;;19.89;48.08;101666.16;5030789;28;20048;-56
2023/12/30 09:02:57;;;;;;;11.18;9.07;;;;;;;19.92;48.12;101673.09;5023495;28;20041;-59
2023/12/30 09:05:25;;;;;;;10.77;9.68;;;;;;;19.93;47.91;101672.13;5023416;28;20463;-59
2023/12/30 09:07:53;;;;;;;10.27;9.25;;;;;;;19.93;48.08;101675.69;5023539;28;20049;-47
2023/12/30 09:10:20;;;;;;;10.10;9.02;;;;;;;19.94;47.96;101680.09;5033137;28;20044;-52
2023/12/30 09:12:48;;;;;;;12.25;9.48;;;;;;;19.96;47.93;101682.66;5023363;28;20046;-53
2023/12/30 09:15:15;;;;;;;10.68;9.52;;;;;;;19.96;47.98;101694.25;5028002;28;20049;-57
2023/12/30 09:17:42;;;;;;;14.57;13.15;;;;;;;19.93;47.70;101685.56;5029998;28;20045;-52
2023/12/30 09:20:10;;;;;;;16.35;14.73;;;;;;;19.91;47.35;101682.16;5032352;28;20041;-54
2023/12/30 09:22:38;;;;;;;17.58;15.77;;;;;;;19.87;47.36;101686.03;5025271;28;20041;-59
2023/12/30 09:25:06;;;;;;;17.23;15.50;;;;;;;19.87;47.26;101680.66;5027606;28;20508;-60
2023/12/30 09:27:33;;;;;;;14.63;13.23;;;;;;;19.88;47.44;101687.75;5020616;28;20100;-56
2023/12/30 09:30:01;;;;;;;14.68;13.07;;;;;;;19.88;47.42;101687.75;5016042;28;20056;-56
2023/12/30 09:32:28;;;;;;;14.93;13.43;;;;;;;19.90;47.34;101694.72;5036239;28;20043;-55
2023/12/30 09:34:56;;;;;;;16.55;14.70;;;;;;;19.89;47.47;101693.03;5035949;28;20049;-53
2023/12/30 09:37:24;;;;;;;15.48;13.23;;;;;;;19.91;47.45;101688.38;5030461;28;20390;-54
2023/12/30 09:39:51;;;;;;;13.40;11.75;;;;;;;19.95;47.50;101694.38;5036806;28;20048;-53
2023/12/30 09:42:19;;;;;;;13.45;11.93;;;;;;;19.94;47.30;101701.59;5036213;28;20079;-51
2023/12/30 09:44:47;;;;;;;12.60;11.20;;;;;;;19.95;47.43;101697.91;5029481;28;20089;-54
2023/12/30 09:47:16;;;;;;;12.65;11.45;;;;;;;19.96;47.32;101691.56;5029668;28;20472;-59
2023/12/30 09:49:44;;;;;;;11.75;10.35;;;;;;;19.97;47.31;101689.72;5042344;28;20053;-60
2023/12/30 09:52:12;;;;;;;12.55;11.25;;;;;;;19.96;47.25;101683.50;5028515;28;20041;-59
2023/12/30 09:54:39;;;;;;;12.02;10.82;;;;;;;19.97;47.39;101687.94;5029496;28;20416;-57
2023/12/30 09:57:16;;;;;;;12.60;11.35;;;;;;;19.98;47.33;101686.09;5031829;28;20073;-56
2023/12/30 09:59:46;;;;;;;11.23;9.98;;;;;;;19.99;47.37;101682.44;5035464;28;20056;-57
2023/12/30 10:02:14;;;;;;;13.77;10.52;;;;;;;20.01;47.66;101683.16;5030151;28;20044;-54
2023/12/30 10:04:41;;;;;;;12.15;10.85;;;;;;;20.02;47.52;101684.03;5028418;28;20056;-51
2023/12/30 10:07:10;;;;;;;13.57;11.88;;;;;;;20.02;47.75;101684.03;5030583;28;20053;-56
2023/12/30 10:09:38;;;;;;;13.93;11.63;;;;;;;20.02;47.85;101681.34;5032605;28;20048;-55
2023/12/30 10:12:07;;;;;;;12.80;11.48;;;;;;;20.01;47.55;101680.47;5037781;28;20042;-58
2023/12/30 10:14:35;;;;;;;14.02;12.63;;;;;;;20.03;47.81;101677.69;5026472;28;20046;-59
2023/12/30 10:17:04;;;;;;;11.88;10.60;;;;;;;20.03;47.73;101675.00;5029428;28;20050;-51
2023/12/30 10:19:31;;;;;;;12.05;10.75;;;;;;;20.03;47.88;101665.09;5030586;28;20056;-53
2023/12/30 10:21:58;;;;;;;13.63;11.43;;;;;;;20.03;47.71;101678.53;5050687;28;20056;-50
2023/12/30 10:24:26;;;;;;;11.10;10.00;;;;;;;20.03;47.78;101675.00;5050027;28;20045;-52
2023/12/30 10:26:53;;;;;;;11.25;10.05;;;;;;;20.02;47.65;101676.81;5034595;28;20034;-57
2023/12/30 10:29:22;;;;;;;13.20;10.20;;;;;;;20.02;47.61;101674.13;5026514;28;20464;-57
2023/12/30 10:32:03;;;;;;;11.05;9.98;;;;;;;20.02;47.78;101667.91;5045855;28;20053;-50
2023/12/30 10:34:31;;;;;;;13.35;10.60;;;;;;;20.03;47.64;101661.56;5046682;28;20052;-52
2023/12/30 10:36:59;;;;;;;10.98;9.73;;;;;;;20.03;47.71;101664.25;5046181;28;20045;-51
2023/12/30 10:39:28;;;;;;;11.23;9.75;;;;;;;20.03;47.86;101656.19;5042025;28;20057;-58
2023/12/30 10:41:58;;;;;;;11.07;9.98;;;;;;;20.03;47.65;101662.41;5043875;28;20077;-58
2023/12/30 10:44:25;;;;;;;11.80;9.90;;;;;;;20.02;47.67;101654.47;5044563;28;20372;-57
2023/12/30 10:46:55;;;;;;;11.63;10.43;;;;;;;20.03;47.73;101661.56;5042946;28;20049;-52
2023/12/30 10:49:24;;;;;;;11.13;9.57;;;;;;;20.05;47.65;101659.59;5038330;28;20391;-52
2023/12/30 10:51:54;;;;;;;12.77;10.68;;;;;;;20.04;47.65;101666.81;5039457;28;20046;-52
2023/12/30 10:54:32;;;;;;;12.48;10.13;;;;;;;20.04;47.60;101656.06;5042024;28;20048;-51
2023/12/30 10:57:09;;;;;;;14.00;11.07;;;;;;;20.10;47.47;101663.66;5037990;28;20042;-49
2023/12/30 10:59:37;;;;;;;18.98;17.08;;;;;;;20.11;47.24;101651.06;5033206;28;20052;-57
2023/12/30 11:02:05;;;;;;;21.83;19.58;;;;;;;20.08;46.83;101660.22;5032888;28;20044;-59
2023/12/30 11:04:33;;;;;;;18.73;16.80;;;;;;;20.06;47.15;101648.75;5037860;28;20045;-59
2023/12/30 11:07:05;;;;;;;16.48;14.85;;;;;;;20.05;47.16;101657.75;5033312;28;20050;-49
2023/12/30 11:09:33;;;;;;;16.17;13.97;;;;;;;20.04;47.08;101645.28;5033641;28;20050;-48
2023/12/30 11:12:02;;;;;;;15.02;13.38;;;;;;;20.04;47.20;101645.28;5036114;28;20279;-49
2023/12/30 11:14:29;;;;;;;13.93;12.52;;;;;;;20.07;47.40;101641.53;5034184;28;20037;-51
2023/12/30 11:16:58;;;;;;;13.13;11.63;;;;;;;20.06;47.46;101642.50;5029100;28;20045;-59
2023/12/30 11:19:31;;;;;;;13.60;12.20;;;;;;;20.05;47.34;101638.94;5027230;28;20050;-59
2023/12/30 11:22:01;;;;;;;12.45;11.13;;;;;;;20.04;47.48;101629.16;5033130;28;20061;-59